createdAt,value
2023-06-30T00:01:50.178Z,18.81
2023-06-30T00:04:19.257Z,18.74
2023-06-30T00:06:51.092Z,18.71
2023-06-30T00:09:20.348Z,18.69
2023-06-30T00:11:51.559Z,18.60
2023-06-30T00:14:19.735Z,18.58
2023-06-30T00:16:47.731Z,18.53
2023-06-30T00:19:15.593Z,18.48
2023-06-30T00:21:43.834Z,18.45
2023-06-30T00:24:12.119Z,18.39
2023-06-30T00:26:40.066Z,18.35
2023-06-30T00:29:09.711Z,18.30
2023-06-30T00:31:37.925Z,18.28
2023-06-30T00:34:05.963Z,18.24
2023-06-30T00:36:34.577Z,18.23
2023-06-30T00:39:02.633Z,18.23
2023-06-30T00:41:30.560Z,18.23
2023-06-30T00:43:59.435Z,18.22
2023-06-30T00:46:28.909Z,18.19
2023-06-30T00:48:56.976Z,18.14
2023-06-30T00:51:25.181Z,18.09
2023-06-30T00:53:53.506Z,18.07
2023-06-30T00:56:21.546Z,18.01
2023-06-30T00:58:49.673Z,17.95
2023-06-30T01:01:26.498Z,17.92
2023-06-30T01:04:01.349Z,17.84
2023-06-30T01:06:42.885Z,17.76
2023-06-30T01:09:16.170Z,17.73
2023-06-30T01:11:45.289Z,17.72
2023-06-30T01:14:15.285Z,17.71
2023-06-30T01:16:44.634Z,17.66
2023-06-30T01:19:21.505Z,17.61
2023-06-30T01:21:51.323Z,17.49
2023-06-30T01:24:22.358Z,17.44
2023-06-30T01:26:50.793Z,17.37
2023-06-30T01:29:19.644Z,17.27
2023-06-30T01:31:48.062Z,17.23
2023-06-30T01:34:17.386Z,17.21
2023-06-30T01:36:45.309Z,17.17
2023-06-30T01:39:13.328Z,17.13
2023-06-30T01:41:41.392Z,17.04
2023-06-30T01:44:09.566Z,16.95
2023-06-30T01:46:37.820Z,16.91
2023-06-30T01:49:06.146Z,16.89
2023-06-30T01:51:35.652Z,16.91
2023-06-30T01:54:03.567Z,16.84
2023-06-30T01:56:31.526Z,16.84
2023-06-30T01:58:59.409Z,16.83
2023-06-30T02:01:27.307Z,16.77
2023-06-30T02:03:55.479Z,16.73
2023-06-30T02:06:23.481Z,16.70
2023-06-30T02:08:52.832Z,16.66
2023-06-30T02:11:22.626Z,16.62
2023-06-30T02:13:50.654Z,16.58
2023-06-30T02:16:18.679Z,16.56
2023-06-30T02:18:46.768Z,16.53
2023-06-30T02:21:14.869Z,16.51
2023-06-30T02:23:42.942Z,16.51
2023-06-30T02:26:12.273Z,16.50
2023-06-30T02:28:40.377Z,16.53
2023-06-30T02:31:08.371Z,16.48
2023-06-30T02:33:36.575Z,16.50
2023-06-30T02:36:04.916Z,16.52
2023-06-30T02:38:33.517Z,16.53
2023-06-30T02:41:01.557Z,16.51
2023-06-30T02:43:30.944Z,16.57
2023-06-30T02:45:59.069Z,16.59
2023-06-30T02:48:27.302Z,16.61
2023-06-30T02:50:55.240Z,16.62
2023-06-30T02:53:23.194Z,16.64
2023-06-30T02:55:51.058Z,16.67
2023-06-30T02:58:19.004Z,16.71
2023-06-30T03:00:48.496Z,16.73
2023-06-30T03:03:16.452Z,16.74
2023-06-30T03:05:44.692Z,16.73
2023-06-30T03:08:13.017Z,16.74
2023-06-30T03:10:41.074Z,16.73
2023-06-30T03:13:09.100Z,16.78
2023-06-30T03:15:37.121Z,16.80
2023-06-30T03:18:06.605Z,16.84
2023-06-30T03:20:34.679Z,16.84
2023-06-30T03:23:02.691Z,16.92
2023-06-30T03:25:30.635Z,16.96
2023-06-30T03:27:58.673Z,17.02
2023-06-30T03:30:26.579Z,17.07
2023-06-30T03:32:54.576Z,17.10
2023-06-30T03:35:23.967Z,17.17
2023-06-30T03:37:51.812Z,17.21
2023-06-30T03:40:19.841Z,17.30
2023-06-30T03:42:48.005Z,17.36
2023-06-30T03:45:16.032Z,17.43
2023-06-30T03:47:44.091Z,17.45
2023-06-30T03:50:12.422Z,17.55
2023-06-30T03:52:41.835Z,17.62
2023-06-30T03:55:10.262Z,17.70
2023-06-30T03:57:38.221Z,17.74
2023-06-30T04:00:12.820Z,17.83
2023-06-30T04:02:41.017Z,17.90
2023-06-30T04:05:09.504Z,18.01
2023-06-30T04:07:38.757Z,18.10
2023-06-30T04:10:09.021Z,18.21
2023-06-30T04:12:36.936Z,18.31
2023-06-30T04:15:05.508Z,18.38
2023-06-30T04:17:33.469Z,18.48
2023-06-30T04:20:01.515Z,18.56
2023-06-30T04:22:29.447Z,18.65
2023-06-30T04:24:57.547Z,18.73
2023-06-30T04:27:26.936Z,18.82
2023-06-30T04:29:54.866Z,18.91
2023-06-30T04:32:25.913Z,19.00
2023-06-30T04:34:53.805Z,19.11
2023-06-30T04:37:21.851Z,19.23
2023-06-30T04:39:51.412Z,19.30
2023-06-30T04:42:19.346Z,19.40
2023-06-30T04:44:48.632Z,19.49
2023-06-30T04:47:17.696Z,19.58
2023-06-30T04:49:45.728Z,19.68
2023-06-30T04:52:14.620Z,19.80
2023-06-30T04:54:42.544Z,19.91
2023-06-30T04:57:11.130Z,20.00
2023-06-30T04:59:39.204Z,20.12
2023-06-30T05:02:08.666Z,20.24
2023-06-30T05:04:36.601Z,20.31
2023-06-30T05:07:04.996Z,20.39
2023-06-30T05:09:32.982Z,20.48
2023-06-30T05:12:00.993Z,20.54
2023-06-30T05:14:28.882Z,20.61
2023-06-30T05:16:56.926Z,20.70
2023-06-30T05:19:26.303Z,20.74
2023-06-30T05:21:54.237Z,20.77
2023-06-30T05:24:22.235Z,20.78
2023-06-30T05:26:50.851Z,20.80
2023-06-30T05:29:18.863Z,20.85
2023-06-30T05:31:46.769Z,20.93
2023-06-30T05:34:16.788Z,20.98
2023-06-30T05:36:46.745Z,21.02
2023-06-30T05:39:15.471Z,21.04
2023-06-30T05:41:43.755Z,21.05
2023-06-30T05:44:11.656Z,21.07
2023-06-30T05:46:39.972Z,21.15
2023-06-30T05:49:08.206Z,21.23
2023-06-30T05:51:36.787Z,21.29
2023-06-30T05:54:07.057Z,21.36
2023-06-30T05:56:34.996Z,21.40
2023-06-30T05:59:02.996Z,21.45
2023-06-30T06:01:31.048Z,21.50
2023-06-30T06:03:59.456Z,21.58
2023-06-30T06:06:27.573Z,21.67
2023-06-30T06:08:55.442Z,21.73
2023-06-30T06:11:24.760Z,21.77
2023-06-30T06:13:52.723Z,21.87
2023-06-30T06:16:20.952Z,21.96
2023-06-30T06:18:49.451Z,22.09
2023-06-30T06:21:19.050Z,22.14
2023-06-30T06:23:47.057Z,22.25
2023-06-30T06:26:15.087Z,22.30
2023-06-30T06:28:44.417Z,22.37
2023-06-30T06:31:15.178Z,22.43
2023-06-30T06:33:46.047Z,22.50
2023-06-30T06:36:14.007Z,22.52
2023-06-30T06:38:44.031Z,22.59
2023-06-30T06:41:11.997Z,22.66
2023-06-30T06:43:39.983Z,22.84
2023-06-30T06:46:09.570Z,22.95
2023-06-30T06:48:37.883Z,22.97
2023-06-30T06:51:05.972Z,22.98
2023-06-30T06:53:36.141Z,23.08
2023-06-30T06:56:05.056Z,23.08
2023-06-30T06:58:34.116Z,23.07
2023-06-30T07:01:02.060Z,23.10
2023-06-30T07:03:31.434Z,23.30
2023-06-30T07:05:59.899Z,23.44
2023-06-30T07:08:29.442Z,23.52
2023-06-30T07:10:57.689Z,23.61
2023-06-30T07:13:25.684Z,23.57
2023-06-30T07:15:54.203Z,23.54
2023-06-30T07:18:23.428Z,23.50
2023-06-30T07:20:55.094Z,23.58
2023-06-30T07:23:25.582Z,23.59
2023-06-30T07:25:55.146Z,23.58
2023-06-30T07:28:23.108Z,23.64
2023-06-30T07:30:51.066Z,23.74
2023-06-30T07:33:19.566Z,23.80
2023-06-30T07:35:47.795Z,23.96
2023-06-30T07:38:17.357Z,24.05
2023-06-30T07:40:55.696Z,24.11
2023-06-30T07:43:25.156Z,24.20
2023-06-30T07:45:53.511Z,24.30
2023-06-30T07:48:21.570Z,24.31
2023-06-30T07:51:03.336Z,24.46
2023-06-30T07:53:39.987Z,24.58
2023-06-30T07:56:07.930Z,24.55
2023-06-30T07:58:35.918Z,24.68
2023-06-30T08:01:04.333Z,24.88
2023-06-30T08:03:32.549Z,24.98
2023-06-30T08:06:01.473Z,25.11
2023-06-30T08:08:29.729Z,25.08
2023-06-30T08:10:59.522Z,25.00
2023-06-30T08:13:28.054Z,24.99
2023-06-30T08:15:58.156Z,24.97
2023-06-30T08:18:32.420Z,24.91
2023-06-30T08:23:15.581Z,24.77
2023-06-30T08:25:43.822Z,24.80
2023-06-30T08:28:12.154Z,24.76
2023-06-30T08:30:40.123Z,24.78
2023-06-30T08:33:08.223Z,24.96
2023-06-30T08:35:36.232Z,25.03
2023-06-30T08:38:04.153Z,25.03
2023-06-30T08:40:34.057Z,25.06
2023-06-30T08:43:06.713Z,25.03
2023-06-30T08:45:34.808Z,25.11
2023-06-30T08:48:06.501Z,25.15
2023-06-30T08:50:35.467Z,25.20
2023-06-30T08:53:04.341Z,25.27
2023-06-30T08:55:33.913Z,25.29
2023-06-30T08:58:07.046Z,25.30
2023-06-30T09:00:41.696Z,25.35
2023-06-30T09:03:10.199Z,25.35
2023-06-30T09:05:41.669Z,25.31
2023-06-30T09:08:16.836Z,25.28
2023-06-30T09:10:48.194Z,25.26
2023-06-30T09:13:19.290Z,25.27
2023-06-30T09:15:48.063Z,25.23
2023-06-30T09:18:16.534Z,25.11
2023-06-30T09:20:44.519Z,25.06
2023-06-30T09:23:14.251Z,25.00
2023-06-30T09:25:42.852Z,24.92
2023-06-30T09:28:15.000Z,24.90
2023-06-30T09:30:46.542Z,24.79
2023-06-30T09:33:18.318Z,24.72
2023-06-30T09:35:49.765Z,24.68
2023-06-30T09:38:19.085Z,24.74
2023-06-30T09:40:48.485Z,24.72
2023-06-30T09:43:22.762Z,24.67
2023-06-30T09:45:56.521Z,24.74
2023-06-30T09:48:37.340Z,24.81
2023-06-30T09:51:08.290Z,24.96
2023-06-30T09:53:38.144Z,25.05
2023-06-30T09:56:07.126Z,25.13
2023-06-30T09:58:40.429Z,25.17
2023-06-30T10:01:09.924Z,25.12
2023-06-30T10:03:48.893Z,25.08
2023-06-30T10:06:18.680Z,25.08
2023-06-30T10:08:48.136Z,25.00
2023-06-30T10:11:16.120Z,25.03
2023-06-30T10:13:48.351Z,25.10
2023-06-30T10:16:18.568Z,25.14
2023-06-30T10:18:49.092Z,25.14
2023-06-30T10:21:17.135Z,25.13
2023-06-30T10:23:47.990Z,25.23
2023-06-30T10:26:19.612Z,25.32
2023-06-30T10:28:49.994Z,25.29
2023-06-30T10:31:18.039Z,25.24
2023-06-30T10:33:46.191Z,25.31
2023-06-30T10:36:15.519Z,25.32
2023-06-30T10:38:45.249Z,25.41
2023-06-30T10:41:14.912Z,25.45
2023-06-30T10:44:10.197Z,25.44
2023-06-30T10:46:52.811Z,25.53
2023-06-30T10:49:24.509Z,25.60
2023-06-30T10:51:53.994Z,25.68
2023-06-30T10:54:23.335Z,25.69
2023-06-30T10:56:52.312Z,25.72
2023-06-30T10:59:24.351Z,25.84
2023-06-30T11:02:11.593Z,25.94
2023-06-30T11:04:40.251Z,25.96
2023-06-30T11:07:08.738Z,26.00
2023-06-30T11:09:59.548Z,26.06
2023-06-30T11:12:28.811Z,26.09
2023-06-30T11:14:59.890Z,26.12
2023-06-30T11:17:29.287Z,26.16
2023-06-30T11:20:00.789Z,26.16
2023-06-30T11:22:32.362Z,26.18
2023-06-30T11:25:00.639Z,26.28
2023-06-30T11:27:31.375Z,26.38
2023-06-30T11:30:01.458Z,26.30
2023-06-30T11:32:31.247Z,26.24
2023-06-30T11:35:00.355Z,26.18
2023-06-30T11:37:31.010Z,26.32
2023-06-30T11:40:00.357Z,26.48
2023-06-30T11:42:28.544Z,26.52
2023-06-30T11:44:56.625Z,26.51
2023-06-30T11:47:26.730Z,26.61
2023-06-30T11:49:54.688Z,26.63
2023-06-30T11:52:22.600Z,26.49
2023-06-30T11:54:50.604Z,26.36
2023-06-30T11:57:18.669Z,26.32
2023-06-30T11:59:46.599Z,26.25
2023-06-30T12:02:14.956Z,26.30
2023-06-30T12:04:49.627Z,26.26
2023-06-30T12:07:17.903Z,26.18
2023-06-30T12:09:47.653Z,26.19
2023-06-30T12:12:28.502Z,26.19
2023-06-30T12:14:57.742Z,26.25
2023-06-30T12:17:28.318Z,26.24
2023-06-30T12:19:57.824Z,26.19
2023-06-30T12:22:29.282Z,26.15
2023-06-30T12:24:58.453Z,26.11
2023-06-30T12:27:28.460Z,26.06
2023-06-30T12:29:56.736Z,26.01
2023-06-30T12:32:29.175Z,25.99
2023-06-30T12:35:05.410Z,25.95
2023-06-30T12:37:35.026Z,25.90
2023-06-30T12:40:04.383Z,25.98
2023-06-30T12:42:32.568Z,26.01
2023-06-30T12:45:00.597Z,25.96
2023-06-30T12:47:28.658Z,25.96
2023-06-30T12:49:56.618Z,25.93
2023-06-30T12:52:26.033Z,25.90
2023-06-30T12:54:54.406Z,25.92
2023-06-30T12:57:22.513Z,25.91
2023-06-30T12:59:50.487Z,25.88
2023-06-30T13:02:18.544Z,25.85
2023-06-30T13:04:46.588Z,25.81
2023-06-30T13:07:14.568Z,25.87
2023-06-30T13:09:49.161Z,25.86
2023-06-30T13:12:18.421Z,25.78
2023-06-30T13:14:46.365Z,25.75
2023-06-30T13:17:16.262Z,25.71
2023-06-30T13:19:44.159Z,25.64
2023-06-30T13:22:13.256Z,25.60
2023-06-30T13:24:41.381Z,25.58
2023-06-30T13:27:10.666Z,25.48
2023-06-30T13:29:44.922Z,25.42
2023-06-30T13:32:13.083Z,25.37
2023-06-30T13:34:41.421Z,25.32
2023-06-30T13:37:09.556Z,25.31
2023-06-30T13:39:38.255Z,25.30
2023-06-30T13:42:06.798Z,25.26
2023-06-30T13:44:36.610Z,25.19
2023-06-30T13:47:05.000Z,25.15
2023-06-30T13:49:32.994Z,25.09
2023-06-30T13:52:00.941Z,25.04
2023-06-30T13:54:30.479Z,24.91
2023-06-30T13:56:58.493Z,24.73
2023-06-30T13:59:26.451Z,24.67
2023-06-30T14:01:55.787Z,24.48
2023-06-30T14:04:23.725Z,24.26
2023-06-30T14:06:51.781Z,24.18
2023-06-30T14:09:19.747Z,24.11
2023-06-30T14:11:47.761Z,24.10
2023-06-30T14:14:15.822Z,23.93
2023-06-30T14:16:44.224Z,23.60
2023-06-30T14:19:13.701Z,23.43
2023-06-30T14:21:41.741Z,23.38
2023-06-30T14:24:09.765Z,23.38
2023-06-30T14:26:38.095Z,23.34
2023-06-30T14:29:06.092Z,23.29
2023-06-30T14:31:34.156Z,23.25
2023-06-30T14:34:02.075Z,23.02
2023-06-30T14:36:31.394Z,22.80
2023-06-30T14:38:59.380Z,22.57
2023-06-30T14:41:27.290Z,22.51
2023-06-30T14:43:55.246Z,22.35
2023-06-30T14:46:23.184Z,22.19
2023-06-30T14:48:51.253Z,22.09
2023-06-30T14:51:19.138Z,21.95
2023-06-30T14:53:48.530Z,21.91
2023-06-30T14:56:16.446Z,21.85
2023-06-30T14:58:44.882Z,21.84
2023-06-30T15:01:12.843Z,21.83
2023-06-30T15:03:40.925Z,21.86
2023-06-30T15:06:08.927Z,21.84
2023-06-30T15:08:36.947Z,21.72
2023-06-30T15:11:06.245Z,21.64
2023-06-30T15:13:34.987Z,21.61
2023-06-30T15:16:03.992Z,21.51
2023-06-30T15:18:32.025Z,21.38
2023-06-30T15:21:00.068Z,21.21
2023-06-30T15:23:28.038Z,21.17
2023-06-30T15:25:55.956Z,21.08
2023-06-30T15:28:25.236Z,21.03
2023-06-30T15:30:53.240Z,20.99
2023-06-30T15:33:21.307Z,20.96
2023-06-30T15:35:49.364Z,20.97
2023-06-30T15:38:17.361Z,20.95
2023-06-30T15:40:45.997Z,20.88
2023-06-30T15:43:13.973Z,20.76
2023-06-30T15:45:43.325Z,20.74
2023-06-30T15:48:15.749Z,20.70
2023-06-30T15:50:44.499Z,20.66
2023-06-30T15:53:12.749Z,20.53
2023-06-30T15:55:40.798Z,20.53
2023-06-30T15:58:08.909Z,20.47
2023-06-30T16:00:36.818Z,20.43
2023-06-30T16:03:06.359Z,20.42
2023-06-30T16:05:34.580Z,20.34
2023-06-30T16:08:05.687Z,20.29
2023-06-30T16:10:33.666Z,20.22
2023-06-30T16:13:01.647Z,20.16
2023-06-30T16:15:29.673Z,20.15
2023-06-30T16:17:57.725Z,20.01
2023-06-30T16:20:27.396Z,19.92
2023-06-30T16:22:55.390Z,19.79
2023-06-30T16:25:23.310Z,19.83
2023-06-30T16:27:51.213Z,19.77
2023-06-30T16:30:26.693Z,19.72
2023-06-30T16:32:58.594Z,19.60
2023-06-30T16:35:28.492Z,19.52
2023-06-30T16:37:57.658Z,19.48
2023-06-30T16:40:26.156Z,19.45
2023-06-30T16:42:54.300Z,19.38
2023-06-30T16:45:22.643Z,19.32
2023-06-30T16:47:50.531Z,19.29
2023-06-30T16:50:19.092Z,19.26
2023-06-30T16:52:48.505Z,19.22
2023-06-30T16:55:16.377Z,19.21
2023-06-30T16:57:45.170Z,19.19
2023-06-30T17:00:14.192Z,19.11
2023-06-30T17:02:42.426Z,19.06
2023-06-30T17:05:11.260Z,19.06
2023-06-30T17:07:39.305Z,19.02
2023-06-30T17:10:12.049Z,19.00
2023-06-30T17:12:40.527Z,18.95
2023-06-30T17:15:10.698Z,18.87
2023-06-30T17:17:38.860Z,18.80
2023-06-30T17:20:08.447Z,18.80
2023-06-30T17:22:36.460Z,18.80
2023-06-30T17:25:05.868Z,18.80
2023-06-30T17:27:35.639Z,18.71
2023-06-30T17:30:04.137Z,18.71
2023-06-30T17:32:32.180Z,18.70
2023-06-30T17:35:00.213Z,18.67
2023-06-30T17:37:28.270Z,18.68
2023-06-30T17:39:56.205Z,18.68
2023-06-30T17:42:24.303Z,18.70
2023-06-30T17:44:53.651Z,18.69
2023-06-30T17:47:21.627Z,18.73
2023-06-30T17:49:49.740Z,18.78
2023-06-30T17:52:17.868Z,18.81
2023-06-30T17:54:47.431Z,18.79
2023-06-30T17:57:15.625Z,18.82
2023-06-30T17:59:43.726Z,18.81
2023-06-30T18:02:13.271Z,18.84
2023-06-30T18:04:42.002Z,18.86
2023-06-30T18:07:11.777Z,18.86
2023-06-30T18:09:41.580Z,18.81
2023-06-30T18:12:10.982Z,18.79
2023-06-30T18:14:40.464Z,18.80
2023-06-30T18:17:08.455Z,18.80
2023-06-30T18:19:37.827Z,18.83
2023-06-30T18:22:06.311Z,18.85
2023-06-30T18:24:34.395Z,18.85
2023-06-30T18:27:02.350Z,18.85
2023-06-30T18:29:30.400Z,18.80
2023-06-30T18:32:00.789Z,18.76
2023-06-30T18:34:29.210Z,18.77
2023-06-30T18:36:58.612Z,18.78
2023-06-30T18:39:26.639Z,18.77
2023-06-30T18:41:55.928Z,18.74
2023-06-30T18:44:26.027Z,18.74
2023-06-30T18:46:54.172Z,18.75
2023-06-30T18:49:24.738Z,18.75
2023-06-30T18:51:55.369Z,18.70
2023-06-30T18:54:24.988Z,18.72
2023-06-30T18:56:53.614Z,18.72
2023-06-30T18:59:21.615Z,18.73
2023-06-30T19:01:49.941Z,18.70
2023-06-30T19:04:18.433Z,18.70
2023-06-30T19:06:48.575Z,18.68
2023-06-30T19:09:16.775Z,18.67
2023-06-30T19:11:46.123Z,18.66
2023-06-30T19:14:14.030Z,18.65
2023-06-30T19:16:41.953Z,18.64
2023-06-30T19:19:09.815Z,18.61
2023-06-30T19:21:37.992Z,18.60
2023-06-30T19:24:06.267Z,18.57
2023-06-30T19:26:36.951Z,18.55
2023-06-30T19:29:06.332Z,18.54
2023-06-30T19:31:34.377Z,18.51
2023-06-30T19:34:02.321Z,18.49
2023-06-30T19:36:32.823Z,18.46
2023-06-30T19:39:00.621Z,18.35
2023-06-30T19:41:28.832Z,18.33
2023-06-30T19:43:56.867Z,18.34
2023-06-30T19:46:27.711Z,18.34
2023-06-30T19:48:55.807Z,18.33
2023-06-30T19:51:23.773Z,18.30
2023-06-30T19:53:51.726Z,18.28
2023-06-30T19:56:19.735Z,18.27
2023-06-30T19:58:47.656Z,18.27
2023-06-30T20:01:18.181Z,18.25
2023-06-30T20:03:47.848Z,18.23
2023-06-30T20:06:15.951Z,18.22
2023-06-30T20:08:43.861Z,18.20
2023-06-30T20:11:13.188Z,18.15
2023-06-30T20:13:41.768Z,18.10
2023-06-30T20:16:10.511Z,18.10
2023-06-30T20:18:38.521Z,18.06
2023-06-30T20:21:07.946Z,18.03
2023-06-30T20:23:35.896Z,18.01
2023-06-30T20:26:03.834Z,17.99
2023-06-30T20:28:31.770Z,17.99
2023-06-30T20:30:59.910Z,17.98
2023-06-30T20:33:28.079Z,17.94
2023-06-30T20:35:56.192Z,17.90
2023-06-30T20:38:25.678Z,17.87
2023-06-30T20:40:53.693Z,17.84
2023-06-30T20:43:21.614Z,17.84
2023-06-30T20:45:49.538Z,17.81
2023-06-30T20:48:20.494Z,17.79
2023-06-30T20:50:48.631Z,17.73
2023-06-30T20:53:17.199Z,17.71
2023-06-30T20:55:46.438Z,17.70
2023-06-30T20:58:14.439Z,17.68
2023-06-30T21:00:42.423Z,17.63
2023-06-30T21:03:11.243Z,17.59
2023-06-30T21:05:39.266Z,17.56
2023-06-30T21:08:07.238Z,17.53
2023-06-30T21:10:35.285Z,17.52
2023-06-30T21:13:04.609Z,17.49
2023-06-30T21:15:32.555Z,17.45
2023-06-30T21:18:00.637Z,17.42
2023-06-30T21:20:28.554Z,17.43
2023-06-30T21:22:56.485Z,17.40
2023-06-30T21:25:24.420Z,17.38
2023-06-30T21:27:52.320Z,17.37
2023-06-30T21:30:21.830Z,17.33
2023-06-30T21:32:49.921Z,17.29
2023-06-30T21:35:18.097Z,17.25
2023-06-30T21:37:46.160Z,17.25
2023-06-30T21:40:15.577Z,17.24
2023-06-30T21:42:44.613Z,17.20
2023-06-30T21:45:12.812Z,17.19
2023-06-30T21:47:42.117Z,17.16
2023-06-30T21:50:10.731Z,17.13
2023-06-30T21:52:38.670Z,17.13
2023-06-30T21:55:07.452Z,17.09
2023-06-30T21:57:35.448Z,17.05
2023-06-30T22:00:04.600Z,17.02
2023-06-30T22:02:32.771Z,16.97
2023-06-30T22:05:02.148Z,16.94
2023-06-30T22:07:31.185Z,16.93
2023-06-30T22:09:59.816Z,16.89
2023-06-30T22:12:27.849Z,16.85
2023-06-30T22:14:55.781Z,16.84
2023-06-30T22:17:23.813Z,16.79
2023-06-30T22:19:51.823Z,16.76
2023-06-30T22:22:21.184Z,16.73
2023-06-30T22:24:49.134Z,16.69
2023-06-30T22:27:17.104Z,16.66
2023-06-30T22:29:45.131Z,16.60
2023-06-30T22:32:14.626Z,16.56
2023-06-30T22:34:42.679Z,16.55
2023-06-30T22:37:10.771Z,16.52
2023-06-30T22:39:40.125Z,16.50
2023-06-30T22:42:08.608Z,16.44
2023-06-30T22:44:36.664Z,16.42
2023-06-30T22:47:04.887Z,16.41
2023-06-30T22:49:32.999Z,16.37
2023-06-30T22:52:00.902Z,16.35
2023-06-30T22:54:28.918Z,16.33
2023-06-30T22:56:59.208Z,16.31
2023-06-30T22:59:27.687Z,16.27
2023-06-30T23:01:55.635Z,16.24
2023-06-30T23:04:23.994Z,16.20
2023-06-30T23:06:51.983Z,16.18
2023-06-30T23:09:20.004Z,16.19
2023-06-30T23:11:47.877Z,16.18
2023-06-30T23:14:19.900Z,16.18
2023-06-30T23:16:48.791Z,16.13
2023-06-30T23:19:16.989Z,16.11
2023-06-30T23:21:45.716Z,16.12
2023-06-30T23:24:13.812Z,16.09
2023-06-30T23:26:42.483Z,16.06
2023-06-30T23:29:10.626Z,16.06
2023-06-30T23:31:40.349Z,16.07
2023-06-30T23:34:08.472Z,16.04
2023-06-30T23:36:37.307Z,16.04
2023-06-30T23:39:05.797Z,16.00
2023-06-30T23:41:33.904Z,16.04
2023-06-30T23:44:02.410Z,16.04
2023-06-30T23:46:31.661Z,16.04
2023-06-30T23:49:01.146Z,16.01
2023-06-30T23:51:29.093Z,16.00
2023-06-30T23:53:57.015Z,16.00
2023-06-30T23:56:25.009Z,15.97
2023-06-30T23:58:52.955Z,15.97
